Flight Track Log - Related Links

Times and Time Zones

All times are in EDT time to prevent confusion due to time zone crossing. See the AWI3778 flight status page for this flight to view local times or setup timezone preferences in your user account.

Time Position Orientation Groundspeed Altitude Reporting Facility
EDT Latitude Longitude Course Direction KTS MPH feet Rate Location/Type
Wed 02:58:56 PM 44.4447 -73.1292 173° South 160 184 1,900  Level Boston Center
Wed 02:59:54 PM 44.3906 -73.1197 173° South 160 184 3,700 2,085 Climbing Boston Center
Wed 03:00:54 PM 44.3261 -73.1103 174° South 222 255 6,000 2,311 Climbing Boston Center
Wed 03:01:56 PM 44.2592 -73.1300 192° South 247 284 8,400 2,200 Climbing Boston Center
Wed 03:02:54 PM 44.1903 -73.1639 199° South 259 298 10,400 1,831 Climbing Boston Center
Wed 03:03:54 PM 44.1169 -73.2267 212° Southwest 287 330 12,000 1,835 Climbing Boston Center
Wed 03:04:55 PM 44.0478 -73.2922 214° Southwest 307 353 14,100 1,736 Climbing Boston Center
Wed 03:05:55 PM 43.9742 -73.3603 214° Southwest 314 361 15,500 1,488 Climbing Boston Center
Wed 03:06:56 PM 43.8967 -73.4311 213° Southwest 325 374 17,100 1,462 Climbing Boston Center
Wed 03:07:54 PM 43.8189 -73.5019 213° Southwest 330 380 18,400 1,261 Climbing Boston Center
Wed 03:08:55 PM 43.7411 -73.5753 214° Southwest 336 387 19,600 1,091 Climbing Boston Center
Wed 03:09:55 PM 43.6653 -73.6428 213° Southwest 354 407 20,600 1,041 Climbing Boston Center
Wed 03:10:56 PM 43.5833 -73.7156 213° Southwest 354 407 21,700 1,091 Climbing Boston Center
Wed 03:11:56 PM 43.4989 -73.7939 214° Southwest 354 407 22,800 1,091 Climbing Boston Center
Wed 03:12:57 PM 43.4169 -73.8692 214° Southwest 354 407 23,900 610 Climbing Boston Center
Wed 03:13:54 PM 43.3200 -73.9525 212° Southwest 359 413 24,000 51 Climbing Boston Center
Wed 03:14:54 PM 43.2333 -74.0331 214° Southwest 370 426 24,000  Level Boston Center
Wed 03:15:55 PM 43.1425 -74.1103 212° Southwest 382 440 24,000  Level Boston Center
Wed 03:16:55 PM 43.0539 -74.1903 213° Southwest 388 447 24,000  Level Boston Center
Wed 03:17:55 PM 42.9631 -74.2700 213° Southwest 388 447 24,000  Level Boston Center
Wed 03:18:54 PM 42.8783 -74.3469 214° Southwest 381 438 24,000  Level Boston Center
Wed 03:19:54 PM 42.7917 -74.4264 214° Southwest 381 438 24,000  Level Boston Center
Wed 03:20:55 PM 42.7047 -74.4997 212° Southwest 376 433 24,000  Level Boston Center
Wed 03:21:56 PM 42.6158 -74.5786 213° Southwest 376 433 24,000  Level Boston Center
Wed 03:22:54 PM 42.5311 -74.6519 213° Southwest 376 433 24,000  Level Boston Center
Wed 03:23:54 PM 42.4442 -74.7275 213° Southwest 376 433 24,000 -446 Level Boston Center
Wed 03:24:55 PM 42.3569 -74.8058 214° Southwest 376 433 23,100 -1,268 Descending Boston Center
Wed 03:27:08 PM 42.1633 -74.9703 212° Southwest 380 437 19,900 -1,268 Descending New York Center
Wed 03:28:09 PM 42.0797 -75.0403 212° Southwest 373 429 19,000 -458 Descending New York Center
Wed 03:29:06 PM 41.9981 -75.1106 213° Southwest 368 423 19,000  Level New York Center
Wed 03:30:07 PM 41.9144 -75.1775 211° Southwest 358 412 19,000 -148 Level New York Center
Wed 03:31:08 PM 41.8417 -75.2339 210° Southwest 352 405 18,700 -787 Descending New York Center
Wed 03:32:09 PM 41.7600 -75.3006 211° Southwest 352 405 17,400 -1,513 Descending New York Center
Wed 03:33:07 PM 41.6717 -75.3725 211° Southwest 347 399 15,700 -1,576 Descending New York Center
Wed 03:34:07 PM 41.5922 -75.4336 210° Southwest 347 399 14,300 -1,438 Descending New York Center
Wed 03:35:08 PM 41.5128 -75.5000 212° Southwest 347 399 12,800 -1,140 Descending New York Center
Wed 03:36:08 PM 41.4458 -75.5533 211° Southwest 335 386 12,000 -400 Descending New York Center
Wed 03:37:08 PM 41.3686 -75.6142 211° Southwest 330 380 12,000  Level New York Center
Wed 03:38:09 PM 41.2931 -75.6750 211° Southwest 330 380 12,000 51 Level New York Center
Wed 03:39:06 PM 41.1947 -75.6872 185° South 316 364 12,100  Climbing New York Center
Wed 03:40:07 PM 41.1031 -75.6889 181° South 332 382 12,000  Descending New York Center
Wed 03:41:08 PM 41.0242 -75.6831 177° South 324 373 12,100  Climbing New York Center
Wed 03:42:06 PM 40.9258 -75.6431 163° South 329 379 12,000 -50 Descending New York Center
Wed 03:43:07 PM 40.8481 -75.6072 161° South 329 379 12,000 -738 Level New York Center
Wed 03:44:08 PM 40.7539 -75.5678 162° South 329 379 10,500 -1,008 Descending New York Center
Wed 03:45:06 PM 40.6803 -75.5325 160° South 324 373 10,000 -252 Descending New York Center
Wed 03:46:07 PM 40.6003 -75.4997 163° South 313 360 10,000  Level New York Center
Wed 03:48:08 PM 40.4406 -75.4286 161° South 290 334 10,000 -199 Level New York Center
Wed 03:49:08 PM 40.3672 -75.3856 156° South 290 334 9,400 -1,150 Descending New York Center
Wed 03:50:08 PM 40.2967 -75.3781 175° South 274 315 7,700 -1,700 Descending New York Center
Wed 03:51:08 PM 40.2317 -75.3875 186° South 274 315 6,000 -1,831 Descending New York Center
Wed 03:52:06 PM 40.1508 -75.3711 171° South 269 310 4,100 -1,500 Descending New York Center
Wed 03:53:08 PM 40.0833 -75.3333 157° South 240 276 3,000 -541 Descending Philadelphia TRACON
Wed 03:54:08 PM 40.0333 -75.3167 166° South 193 222 3,000 -450 Level Philadelphia TRACON
Wed 03:55:08 PM 39.9833 -75.2833 153° Southeast 174 200 2,100 -850 Descending Philadelphia TRACON
Wed 03:56:08 PM 39.9500 -75.2667 159° South 132 152 1,300 -800 Descending Philadelphia TRACON
Wed 03:57:08 PM 39.9167 -75.2500 159° South 137 158 500 -800 Descending Philadelphia TRACON

Login

Don't have an account? Register now (free) for customized features, flight alerts, and more!